sensor_id;sensor_type;location;lat;lon;timestamp;temperature;humidity
31765;DHT22;18338;53.240;8.798;2023-03-31T00:00:33;11.70;99.90
31765;DHT22;18338;53.240;8.798;2023-03-31T00:03:00;11.80;99.90
31765;DHT22;18338;53.240;8.798;2023-03-31T00:05:28;11.70;99.90
31765;DHT22;18338;53.240;8.798;2023-03-31T00:07:56;11.80;99.90
31765;DHT22;18338;53.240;8.798;2023-03-31T00:10:31;11.80;99.90
31765;DHT22;18338;53.240;8.798;2023-03-31T00:13:00;11.80;99.90
31765;DHT22;18338;53.240;8.798;2023-03-31T00:15:28;11.80;99.90
31765;DHT22;18338;53.240;8.798;2023-03-31T00:17:55;11.80;99.90
31765;DHT22;18338;53.240;8.798;2023-03-31T00:20:26;11.80;99.90
31765;DHT22;18338;53.240;8.798;2023-03-31T00:22:53;11.70;99.90
31765;DHT22;18338;53.240;8.798;2023-03-31T00:25:20;11.70;99.90
31765;DHT22;18338;53.240;8.798;2023-03-31T00:27:46;11.60;99.90
31765;DHT22;18338;53.240;8.798;2023-03-31T00:30:15;11.60;99.90
31765;DHT22;18338;53.240;8.798;2023-03-31T00:32:42;11.60;99.90
31765;DHT22;18338;53.240;8.798;2023-03-31T00:35:09;11.50;99.90
31765;DHT22;18338;53.240;8.798;2023-03-31T00:37:37;11.50;99.90
31765;DHT22;18338;53.240;8.798;2023-03-31T00:40:04;11.60;99.90
31765;DHT22;18338;53.240;8.798;2023-03-31T00:42:41;11.60;99.90
31765;DHT22;18338;53.240;8.798;2023-03-31T00:47:54;11.60;99.90
31765;DHT22;18338;53.240;8.798;2023-03-31T00:50:33;11.50;99.90
31765;DHT22;18338;53.240;8.798;2023-03-31T00:53:06;11.60;99.90
31765;DHT22;18338;53.240;8.798;2023-03-31T00:55:39;11.50;99.90
31765;DHT22;18338;53.240;8.798;2023-03-31T00:58:07;11.60;99.90
31765;DHT22;18338;53.240;8.798;2023-03-31T01:00:34;11.50;99.90
31765;DHT22;18338;53.240;8.798;2023-03-31T01:03:05;11.60;99.90
31765;DHT22;18338;53.240;8.798;2023-03-31T01:06:15;11.60;99.90
31765;DHT22;18338;53.240;8.798;2023-03-31T01:08:36;11.70;99.90
31765;DHT22;18338;53.240;8.798;2023-03-31T01:11:06;11.70;99.90
31765;DHT22;18338;53.240;8.798;2023-03-31T01:13:36;11.70;99.90
31765;DHT22;18338;53.240;8.798;2023-03-31T01:16:03;11.70;99.90
31765;DHT22;18338;53.240;8.798;2023-03-31T01:18:31;11.70;99.90
31765;DHT22;18338;53.240;8.798;2023-03-31T01:30:36;11.70;99.90
31765;DHT22;18338;53.240;8.798;2023-03-31T01:36:21;11.70;99.90
31765;DHT22;18338;53.240;8.798;2023-03-31T01:42:24;11.70;99.90
31765;DHT22;18338;53.240;8.798;2023-03-31T01:45:18;11.60;99.90
31765;DHT22;18338;53.240;8.798;2023-03-31T01:47:54;11.60;99.90
31765;DHT22;18338;53.240;8.798;2023-03-31T01:53:44;11.60;99.90
31765;DHT22;18338;53.240;8.798;2023-03-31T01:56:25;11.60;99.90
31765;DHT22;18338;53.240;8.798;2023-03-31T01:58:58;11.50;99.90
31765;DHT22;18338;53.240;8.798;2023-03-31T02:01:44;11.50;99.90
31765;DHT22;18338;53.240;8.798;2023-03-31T02:05:01;11.50;99.90
31765;DHT22;18338;53.240;8.798;2023-03-31T02:07:06;11.50;99.90
31765;DHT22;18338;53.240;8.798;2023-03-31T02:09:36;11.50;99.90
31765;DHT22;18338;53.240;8.798;2023-03-31T02:12:07;11.50;99.90
31765;DHT22;18338;53.240;8.798;2023-03-31T02:14:38;11.50;99.90
31765;DHT22;18338;53.240;8.798;2023-03-31T02:17:12;11.40;99.90
31765;DHT22;18338;53.240;8.798;2023-03-31T02:19:46;11.40;99.90
31765;DHT22;18338;53.240;8.798;2023-03-31T02:22:15;11.40;99.90
31765;DHT22;18338;53.240;8.798;2023-03-31T02:24:46;11.40;99.90
31765;DHT22;18338;53.240;8.798;2023-03-31T02:29:43;11.30;99.90
31765;DHT22;18338;53.240;8.798;2023-03-31T02:34:46;11.00;99.90
31765;DHT22;18338;53.240;8.798;2023-03-31T02:37:12;10.90;99.90
31765;DHT22;18338;53.240;8.798;2023-03-31T02:39:42;10.90;99.90
31765;DHT22;18338;53.240;8.798;2023-03-31T02:42:10;10.90;99.90
31765;DHT22;18338;53.240;8.798;2023-03-31T02:44:38;11.00;99.90
31765;DHT22;18338;53.240;8.798;2023-03-31T02:47:07;11.10;99.90
31765;DHT22;18338;53.240;8.798;2023-03-31T02:49:37;11.10;99.90
31765;DHT22;18338;53.240;8.798;2023-03-31T02:55:30;11.30;99.90
31765;DHT22;18338;53.240;8.798;2023-03-31T02:58:21;11.40;99.90
31765;DHT22;18338;53.240;8.798;2023-03-31T03:04:00;11.40;99.90
31765;DHT22;18338;53.240;8.798;2023-03-31T03:06:43;11.40;99.90
31765;DHT22;18338;53.240;8.798;2023-03-31T03:09:51;11.40;99.90
31765;DHT22;18338;53.240;8.798;2023-03-31T03:12:55;11.40;99.90
31765;DHT22;18338;53.240;8.798;2023-03-31T03:15:34;11.30;99.90
31765;DHT22;18338;53.240;8.798;2023-03-31T03:18:04;11.30;99.90
31765;DHT22;18338;53.240;8.798;2023-03-31T03:20:32;11.30;99.90
31765;DHT22;18338;53.240;8.798;2023-03-31T03:22:59;11.30;99.90
31765;DHT22;18338;53.240;8.798;2023-03-31T03:25:26;11.30;99.90
31765;DHT22;18338;53.240;8.798;2023-03-31T03:27:53;11.30;99.90
31765;DHT22;18338;53.240;8.798;2023-03-31T03:30:20;11.30;99.90
31765;DHT22;18338;53.240;8.798;2023-03-31T03:32:47;11.30;99.90
31765;DHT22;18338;53.240;8.798;2023-03-31T03:35:13;11.30;99.90
31765;DHT22;18338;53.240;8.798;2023-03-31T03:37:41;11.20;99.90
31765;DHT22;18338;53.240;8.798;2023-03-31T03:40:08;11.20;99.90
31765;DHT22;18338;53.240;8.798;2023-03-31T03:42:35;11.10;99.90
31765;DHT22;18338;53.240;8.798;2023-03-31T03:45:04;11.10;99.90
31765;DHT22;18338;53.240;8.798;2023-03-31T03:47:31;11.00;99.90
31765;DHT22;18338;53.240;8.798;2023-03-31T03:49:57;11.00;99.90
31765;DHT22;18338;53.240;8.798;2023-03-31T03:52:24;11.00;99.90
31765;DHT22;18338;53.240;8.798;2023-03-31T03:54:51;11.10;99.90
31765;DHT22;18338;53.240;8.798;2023-03-31T03:57:17;11.10;99.90
31765;DHT22;18338;53.240;8.798;2023-03-31T03:59:44;11.10;99.90
31765;DHT22;18338;53.240;8.798;2023-03-31T04:02:11;11.10;99.90
31765;DHT22;18338;53.240;8.798;2023-03-31T04:04:38;11.10;99.90
31765;DHT22;18338;53.240;8.798;2023-03-31T04:07:05;11.20;99.90
31765;DHT22;18338;53.240;8.798;2023-03-31T04:09:31;11.20;99.90
31765;DHT22;18338;53.240;8.798;2023-03-31T04:11:58;11.20;99.90
31765;DHT22;18338;53.240;8.798;2023-03-31T04:14:25;11.20;99.90
31765;DHT22;18338;53.240;8.798;2023-03-31T04:16:51;11.20;99.90
31765;DHT22;18338;53.240;8.798;2023-03-31T04:19:22;11.20;99.90
31765;DHT22;18338;53.240;8.798;2023-03-31T04:21:51;11.20;99.90
31765;DHT22;18338;53.240;8.798;2023-03-31T04:24:25;11.10;99.90
31765;DHT22;18338;53.240;8.798;2023-03-31T04:26:56;11.20;99.90
31765;DHT22;18338;53.240;8.798;2023-03-31T04:29:23;11.10;99.90
31765;DHT22;18338;53.240;8.798;2023-03-31T04:31:53;11.10;99.90
31765;DHT22;18338;53.240;8.798;2023-03-31T04:34:25;11.10;99.90
31765;DHT22;18338;53.240;8.798;2023-03-31T04:37:01;11.10;99.90
31765;DHT22;18338;53.240;8.798;2023-03-31T04:39:29;11.10;99.90
31765;DHT22;18338;53.240;8.798;2023-03-31T04:42:00;11.00;99.90
31765;DHT22;18338;53.240;8.798;2023-03-31T04:44:27;11.00;99.90
31765;DHT22;18338;53.240;8.798;2023-03-31T04:46:54;11.00;99.90
31765;DHT22;18338;53.240;8.798;2023-03-31T04:49:21;11.00;99.90
31765;DHT22;18338;53.240;8.798;2023-03-31T04:51:48;10.90;99.90
31765;DHT22;18338;53.240;8.798;2023-03-31T04:54:15;10.90;99.90
31765;DHT22;18338;53.240;8.798;2023-03-31T04:56:42;10.80;99.90
31765;DHT22;18338;53.240;8.798;2023-03-31T04:59:09;10.80;99.90
31765;DHT22;18338;53.240;8.798;2023-03-31T05:01:36;10.80;99.90
31765;DHT22;18338;53.240;8.798;2023-03-31T05:04:03;10.70;99.90
31765;DHT22;18338;53.240;8.798;2023-03-31T05:06:31;10.70;99.90
31765;DHT22;18338;53.240;8.798;2023-03-31T05:08:58;10.60;99.90
31765;DHT22;18338;53.240;8.798;2023-03-31T05:11:24;10.50;99.90
31765;DHT22;18338;53.240;8.798;2023-03-31T05:13:51;10.50;99.90
31765;DHT22;18338;53.240;8.798;2023-03-31T05:16:18;10.40;99.90
31765;DHT22;18338;53.240;8.798;2023-03-31T05:18:45;10.40;99.90
31765;DHT22;18338;53.240;8.798;2023-03-31T05:21:14;10.40;99.90
31765;DHT22;18338;53.240;8.798;2023-03-31T05:23:42;10.40;99.90
31765;DHT22;18338;53.240;8.798;2023-03-31T05:26:09;10.40;99.90
31765;DHT22;18338;53.240;8.798;2023-03-31T05:28:36;10.50;99.90
31765;DHT22;18338;53.240;8.798;2023-03-31T05:31:04;10.50;99.90
31765;DHT22;18338;53.240;8.798;2023-03-31T05:33:31;10.50;99.90
31765;DHT22;18338;53.240;8.798;2023-03-31T05:35:59;10.60;99.90
31765;DHT22;18338;53.240;8.798;2023-03-31T05:38:26;10.60;99.90
31765;DHT22;18338;53.240;8.798;2023-03-31T05:40:57;10.60;99.90
31765;DHT22;18338;53.240;8.798;2023-03-31T05:43:24;10.70;99.90
31765;DHT22;18338;53.240;8.798;2023-03-31T05:45:50;10.70;99.90
31765;DHT22;18338;53.240;8.798;2023-03-31T05:48:17;10.80;99.90
31765;DHT22;18338;53.240;8.798;2023-03-31T05:50:45;10.80;99.90
31765;DHT22;18338;53.240;8.798;2023-03-31T05:53:12;10.80;99.90
31765;DHT22;18338;53.240;8.798;2023-03-31T05:55:39;10.80;99.90
31765;DHT22;18338;53.240;8.798;2023-03-31T05:58:05;10.90;99.90
31765;DHT22;18338;53.240;8.798;2023-03-31T06:00:32;10.80;99.90
31765;DHT22;18338;53.240;8.798;2023-03-31T06:02:59;10.70;99.90
31765;DHT22;18338;53.240;8.798;2023-03-31T06:05:26;10.60;99.90
31765;DHT22;18338;53.240;8.798;2023-03-31T06:07:53;10.60;99.90
31765;DHT22;18338;53.240;8.798;2023-03-31T06:10:20;10.50;99.90
31765;DHT22;18338;53.240;8.798;2023-03-31T06:12:46;10.50;99.90
31765;DHT22;18338;53.240;8.798;2023-03-31T06:15:13;10.40;99.90
31765;DHT22;18338;53.240;8.798;2023-03-31T06:17:40;10.40;99.90
31765;DHT22;18338;53.240;8.798;2023-03-31T06:20:07;10.40;99.90
31765;DHT22;18338;53.240;8.798;2023-03-31T06:22:53;10.30;99.90
31765;DHT22;18338;53.240;8.798;2023-03-31T06:25:19;10.30;99.90
31765;DHT22;18338;53.240;8.798;2023-03-31T06:27:47;10.30;99.90
31765;DHT22;18338;53.240;8.798;2023-03-31T06:30:13;10.30;99.90
31765;DHT22;18338;53.240;8.798;2023-03-31T06:32:40;10.30;99.90
31765;DHT22;18338;53.240;8.798;2023-03-31T06:35:08;10.30;99.90
31765;DHT22;18338;53.240;8.798;2023-03-31T06:37:34;10.30;99.90
31765;DHT22;18338;53.240;8.798;2023-03-31T06:40:01;10.40;99.90
31765;DHT22;18338;53.240;8.798;2023-03-31T06:42:28;10.40;99.90
31765;DHT22;18338;53.240;8.798;2023-03-31T06:44:55;10.40;99.90
31765;DHT22;18338;53.240;8.798;2023-03-31T06:47:21;10.30;99.90
31765;DHT22;18338;53.240;8.798;2023-03-31T06:49:48;10.40;99.90
31765;DHT22;18338;53.240;8.798;2023-03-31T06:52:15;10.40;99.90
31765;DHT22;18338;53.240;8.798;2023-03-31T06:54:42;10.40;99.90
31765;DHT22;18338;53.240;8.798;2023-03-31T06:57:08;10.40;99.90
31765;DHT22;18338;53.240;8.798;2023-03-31T06:59:35;10.40;99.90
31765;DHT22;18338;53.240;8.798;2023-03-31T07:02:02;10.40;99.90
31765;DHT22;18338;53.240;8.798;2023-03-31T07:04:29;10.50;99.90
31765;DHT22;18338;53.240;8.798;2023-03-31T07:06:57;10.40;99.90
31765;DHT22;18338;53.240;8.798;2023-03-31T07:09:24;10.50;99.90
31765;DHT22;18338;53.240;8.798;2023-03-31T07:11:51;10.50;99.90
31765;DHT22;18338;53.240;8.798;2023-03-31T07:14:18;10.60;99.90
31765;DHT22;18338;53.240;8.798;2023-03-31T07:16:45;10.70;99.90
31765;DHT22;18338;53.240;8.798;2023-03-31T07:19:12;10.60;99.90
31765;DHT22;18338;53.240;8.798;2023-03-31T07:21:40;10.60;99.90
31765;DHT22;18338;53.240;8.798;2023-03-31T07:24:07;10.60;99.90
31765;DHT22;18338;53.240;8.798;2023-03-31T07:26:34;10.70;99.90
31765;DHT22;18338;53.240;8.798;2023-03-31T07:29:00;10.80;99.90
31765;DHT22;18338;53.240;8.798;2023-03-31T07:31:27;10.90;99.90
31765;DHT22;18338;53.240;8.798;2023-03-31T07:33:54;10.90;99.90
31765;DHT22;18338;53.240;8.798;2023-03-31T07:36:20;10.90;99.90
31765;DHT22;18338;53.240;8.798;2023-03-31T07:38:48;10.90;99.90
31765;DHT22;18338;53.240;8.798;2023-03-31T07:41:19;10.90;99.90
31765;DHT22;18338;53.240;8.798;2023-03-31T07:43:46;10.90;99.90
31765;DHT22;18338;53.240;8.798;2023-03-31T07:46:15;10.90;99.90
31765;DHT22;18338;53.240;8.798;2023-03-31T07:48:42;11.00;99.90
31765;DHT22;18338;53.240;8.798;2023-03-31T07:51:09;11.10;99.90
31765;DHT22;18338;53.240;8.798;2023-03-31T07:53:36;11.20;99.90
31765;DHT22;18338;53.240;8.798;2023-03-31T07:56:02;11.30;99.90
31765;DHT22;18338;53.240;8.798;2023-03-31T07:58:29;11.30;99.90
31765;DHT22;18338;53.240;8.798;2023-03-31T08:00:56;11.30;99.90
31765;DHT22;18338;53.240;8.798;2023-03-31T08:03:23;11.30;99.90
31765;DHT22;18338;53.240;8.798;2023-03-31T08:05:53;11.30;99.90
31765;DHT22;18338;53.240;8.798;2023-03-31T08:08:20;11.30;99.90
31765;DHT22;18338;53.240;8.798;2023-03-31T08:10:47;11.30;99.90
31765;DHT22;18338;53.240;8.798;2023-03-31T08:13:14;11.40;99.90
31765;DHT22;18338;53.240;8.798;2023-03-31T08:15:41;11.50;99.90
31765;DHT22;18338;53.240;8.798;2023-03-31T08:18:08;11.60;99.90
31765;DHT22;18338;53.240;8.798;2023-03-31T08:20:35;11.70;99.90
31765;DHT22;18338;53.240;8.798;2023-03-31T08:23:02;11.80;99.90
31765;DHT22;18338;53.240;8.798;2023-03-31T08:25:30;11.80;99.90
31765;DHT22;18338;53.240;8.798;2023-03-31T08:27:57;11.90;99.90
31765;DHT22;18338;53.240;8.798;2023-03-31T08:30:24;12.00;99.90
31765;DHT22;18338;53.240;8.798;2023-03-31T08:32:51;11.90;99.90
31765;DHT22;18338;53.240;8.798;2023-03-31T08:35:17;11.70;99.90
31765;DHT22;18338;53.240;8.798;2023-03-31T08:37:44;11.70;99.90
31765;DHT22;18338;53.240;8.798;2023-03-31T08:40:19;11.80;99.90
31765;DHT22;18338;53.240;8.798;2023-03-31T08:42:50;11.80;99.90
31765;DHT22;18338;53.240;8.798;2023-03-31T08:45:25;11.80;99.90
31765;DHT22;18338;53.240;8.798;2023-03-31T08:47:56;11.90;99.90
31765;DHT22;18338;53.240;8.798;2023-03-31T08:50:27;11.90;99.90
31765;DHT22;18338;53.240;8.798;2023-03-31T08:53:03;12.00;99.90
31765;DHT22;18338;53.240;8.798;2023-03-31T08:55:52;12.10;99.90
31765;DHT22;18338;53.240;8.798;2023-03-31T08:58:43;12.10;99.90
31765;DHT22;18338;53.240;8.798;2023-03-31T09:04:27;11.80;99.90
31765;DHT22;18338;53.240;8.798;2023-03-31T09:06:57;11.60;99.90
31765;DHT22;18338;53.240;8.798;2023-03-31T09:12:20;11.50;99.90
31765;DHT22;18338;53.240;8.798;2023-03-31T09:14:56;11.50;99.90
31765;DHT22;18338;53.240;8.798;2023-03-31T09:17:44;11.50;99.90
31765;DHT22;18338;53.240;8.798;2023-03-31T09:22:49;11.30;99.90
31765;DHT22;18338;53.240;8.798;2023-03-31T09:25:24;11.30;99.90
31765;DHT22;18338;53.240;8.798;2023-03-31T09:27:54;11.30;99.90
31765;DHT22;18338;53.240;8.798;2023-03-31T09:30:29;11.40;99.90
31765;DHT22;18338;53.240;8.798;2023-03-31T09:33:16;11.50;99.90
31765;DHT22;18338;53.240;8.798;2023-03-31T09:35:43;11.60;99.90
31765;DHT22;18338;53.240;8.798;2023-03-31T09:38:13;11.70;99.90
31765;DHT22;18338;53.240;8.798;2023-03-31T09:40:42;11.70;99.90
31765;DHT22;18338;53.240;8.798;2023-03-31T09:43:23;11.60;99.90
31765;DHT22;18338;53.240;8.798;2023-03-31T09:45:52;11.60;99.90
31765;DHT22;18338;53.240;8.798;2023-03-31T09:48:35;11.50;99.90
31765;DHT22;18338;53.240;8.798;2023-03-31T09:51:07;11.40;99.90
31765;DHT22;18338;53.240;8.798;2023-03-31T09:53:39;11.50;99.90
31765;DHT22;18338;53.240;8.798;2023-03-31T09:56:08;11.60;99.90
31765;DHT22;18338;53.240;8.798;2023-03-31T09:58:41;11.50;99.90
31765;DHT22;18338;53.240;8.798;2023-03-31T10:01:10;11.50;99.90
31765;DHT22;18338;53.240;8.798;2023-03-31T10:04:07;11.50;99.90
31765;DHT22;18338;53.240;8.798;2023-03-31T10:06:39;11.40;99.90
31765;DHT22;18338;53.240;8.798;2023-03-31T10:09:09;11.40;99.90
31765;DHT22;18338;53.240;8.798;2023-03-31T10:11:36;11.30;99.90
31765;DHT22;18338;53.240;8.798;2023-03-31T10:14:09;11.40;99.90
31765;DHT22;18338;53.240;8.798;2023-03-31T10:16:49;11.50;99.90
31765;DHT22;18338;53.240;8.798;2023-03-31T10:24:24;11.50;99.90
31765;DHT22;18338;53.240;8.798;2023-03-31T10:26:54;11.50;99.90
31765;DHT22;18338;53.240;8.798;2023-03-31T10:29:31;11.50;99.90
31765;DHT22;18338;53.240;8.798;2023-03-31T10:32:04;11.40;99.90
31765;DHT22;18338;53.240;8.798;2023-03-31T10:34:38;11.40;99.90
31765;DHT22;18338;53.240;8.798;2023-03-31T10:37:11;11.40;99.90
31765;DHT22;18338;53.240;8.798;2023-03-31T10:39:39;11.50;99.90
31765;DHT22;18338;53.240;8.798;2023-03-31T10:42:06;11.50;99.90
31765;DHT22;18338;53.240;8.798;2023-03-31T10:44:35;11.50;99.90
31765;DHT22;18338;53.240;8.798;2023-03-31T10:49:40;11.60;99.90
31765;DHT22;18338;53.240;8.798;2023-03-31T10:52:24;11.70;99.90
31765;DHT22;18338;53.240;8.798;2023-03-31T10:54:58;11.60;99.90
31765;DHT22;18338;53.240;8.798;2023-03-31T11:00:34;11.60;99.90
31765;DHT22;18338;53.240;8.798;2023-03-31T11:03:34;11.60;99.90
31765;DHT22;18338;53.240;8.798;2023-03-31T11:20:23;12.30;99.90
31765;DHT22;18338;53.240;8.798;2023-03-31T11:23:19;12.30;99.90
31765;DHT22;18338;53.240;8.798;2023-03-31T11:28:57;12.40;99.90
31765;DHT22;18338;53.240;8.798;2023-03-31T11:31:34;12.50;99.90
31765;DHT22;18338;53.240;8.798;2023-03-31T11:42:22;12.50;99.90
31765;DHT22;18338;53.240;8.798;2023-03-31T11:44:55;12.60;99.90
31765;DHT22;18338;53.240;8.798;2023-03-31T11:47:30;12.80;99.90
31765;DHT22;18338;53.240;8.798;2023-03-31T11:50:10;12.90;99.90
31765;DHT22;18338;53.240;8.798;2023-03-31T11:52:53;13.10;99.90
31765;DHT22;18338;53.240;8.798;2023-03-31T11:55:24;13.20;99.90
31765;DHT22;18338;53.240;8.798;2023-03-31T11:57:58;13.40;99.90
31765;DHT22;18338;53.240;8.798;2023-03-31T12:00:29;13.80;99.90
31765;DHT22;18338;53.240;8.798;2023-03-31T12:03:30;14.10;99.90
31765;DHT22;18338;53.240;8.798;2023-03-31T12:05:56;14.60;99.90
31765;DHT22;18338;53.240;8.798;2023-03-31T12:11:20;15.00;99.90
31765;DHT22;18338;53.240;8.798;2023-03-31T12:14:16;14.90;99.90
31765;DHT22;18338;53.240;8.798;2023-03-31T12:19:59;14.00;99.90
31765;DHT22;18338;53.240;8.798;2023-03-31T12:22:31;13.70;99.90
31765;DHT22;18338;53.240;8.798;2023-03-31T12:25:01;13.10;99.90
31765;DHT22;18338;53.240;8.798;2023-03-31T12:27:35;12.70;99.90
31765;DHT22;18338;53.240;8.798;2023-03-31T12:30:27;12.50;99.90
31765;DHT22;18338;53.240;8.798;2023-03-31T12:32:59;12.40;99.90
31765;DHT22;18338;53.240;8.798;2023-03-31T12:41:13;12.50;99.90
31765;DHT22;18338;53.240;8.798;2023-03-31T12:46:45;11.80;99.90
31765;DHT22;18338;53.240;8.798;2023-03-31T12:49:27;11.80;99.90
31765;DHT22;18338;53.240;8.798;2023-03-31T12:52:04;12.00;99.90
31765;DHT22;18338;53.240;8.798;2023-03-31T12:54:51;12.20;99.90
31765;DHT22;18338;53.240;8.798;2023-03-31T12:57:22;12.40;99.90
31765;DHT22;18338;53.240;8.798;2023-03-31T13:02:33;12.70;99.90
31765;DHT22;18338;53.240;8.798;2023-03-31T13:08:03;12.90;99.90
31765;DHT22;18338;53.240;8.798;2023-03-31T13:10:31;12.60;99.90
31765;DHT22;18338;53.240;8.798;2023-03-31T13:13:13;12.50;99.90
31765;DHT22;18338;53.240;8.798;2023-03-31T13:15:53;12.40;99.90
31765;DHT22;18338;53.240;8.798;2023-03-31T13:18:21;12.40;99.90
31765;DHT22;18338;53.240;8.798;2023-03-31T13:21:02;12.50;99.90
31765;DHT22;18338;53.240;8.798;2023-03-31T13:23:35;12.40;99.90
31765;DHT22;18338;53.240;8.798;2023-03-31T13:26:03;12.30;99.90
31765;DHT22;18338;53.240;8.798;2023-03-31T13:28:37;12.50;99.90
31765;DHT22;18338;53.240;8.798;2023-03-31T13:31:06;12.70;99.90
31765;DHT22;18338;53.240;8.798;2023-03-31T13:33:35;13.50;99.90
31765;DHT22;18338;53.240;8.798;2023-03-31T13:39:06;17.60;99.90
31765;DHT22;18338;53.240;8.798;2023-03-31T13:44:23;21.10;99.90
31765;DHT22;18338;53.240;8.798;2023-03-31T13:58:18;16.80;99.90
31765;DHT22;18338;53.240;8.798;2023-03-31T14:01:16;16.00;99.90
31765;DHT22;18338;53.240;8.798;2023-03-31T14:09:33;15.90;99.90
31765;DHT22;18338;53.240;8.798;2023-03-31T14:12:01;15.90;99.90
31765;DHT22;18338;53.240;8.798;2023-03-31T14:14:43;15.20;99.90
31765;DHT22;18338;53.240;8.798;2023-03-31T14:17:11;15.50;99.90
31765;DHT22;18338;53.240;8.798;2023-03-31T14:25:17;14.70;99.90
31765;DHT22;18338;53.240;8.798;2023-03-31T14:33:53;14.10;99.90
31765;DHT22;18338;53.240;8.798;2023-03-31T14:39:17;14.00;99.90
31765;DHT22;18338;53.240;8.798;2023-03-31T14:41:54;13.80;99.90
31765;DHT22;18338;53.240;8.798;2023-03-31T14:44:24;13.90;99.90
31765;DHT22;18338;53.240;8.798;2023-03-31T14:46:51;13.80;99.90
31765;DHT22;18338;53.240;8.798;2023-03-31T14:49:19;14.00;99.90
31765;DHT22;18338;53.240;8.798;2023-03-31T14:51:47;14.40;99.90
31765;DHT22;18338;53.240;8.798;2023-03-31T14:54:18;15.10;99.90
31765;DHT22;18338;53.240;8.798;2023-03-31T14:56:49;16.40;99.90
31765;DHT22;18338;53.240;8.798;2023-03-31T14:59:25;17.10;99.90
31765;DHT22;18338;53.240;8.798;2023-03-31T15:01:55;17.30;99.90
31765;DHT22;18338;53.240;8.798;2023-03-31T15:04:25;17.80;99.90
31765;DHT22;18338;53.240;8.798;2023-03-31T15:07:07;18.10;99.90
31765;DHT22;18338;53.240;8.798;2023-03-31T15:09:34;17.80;99.90
31765;DHT22;18338;53.240;8.798;2023-03-31T15:12:06;17.90;99.90
31765;DHT22;18338;53.240;8.798;2023-03-31T15:14:45;17.20;99.90
31765;DHT22;18338;53.240;8.798;2023-03-31T15:17:27;16.70;99.90
31765;DHT22;18338;53.240;8.798;2023-03-31T15:19:56;16.00;99.90
31765;DHT22;18338;53.240;8.798;2023-03-31T15:22:25;15.90;99.90
31765;DHT22;18338;53.240;8.798;2023-03-31T15:24:53;16.00;99.90
31765;DHT22;18338;53.240;8.798;2023-03-31T15:27:43;16.50;99.90
31765;DHT22;18338;53.240;8.798;2023-03-31T15:30:18;16.50;99.90
31765;DHT22;18338;53.240;8.798;2023-03-31T15:32:47;16.20;99.90
31765;DHT22;18338;53.240;8.798;2023-03-31T15:35:29;16.20;99.90
31765;DHT22;18338;53.240;8.798;2023-03-31T15:37:58;15.60;99.90
31765;DHT22;18338;53.240;8.798;2023-03-31T15:40:31;15.10;99.90
31765;DHT22;18338;53.240;8.798;2023-03-31T15:46:00;14.80;99.90
31765;DHT22;18338;53.240;8.798;2023-03-31T15:48:35;14.90;99.90
31765;DHT22;18338;53.240;8.798;2023-03-31T15:53:47;14.70;99.90
31765;DHT22;18338;53.240;8.798;2023-03-31T15:58:59;15.30;99.90
31765;DHT22;18338;53.240;8.798;2023-03-31T16:01:32;15.10;99.90
31765;DHT22;18338;53.240;8.798;2023-03-31T16:04:04;14.90;99.90
31765;DHT22;18338;53.240;8.798;2023-03-31T16:09:08;14.40;99.90
31765;DHT22;18338;53.240;8.798;2023-03-31T16:11:44;14.40;99.90
31765;DHT22;18338;53.240;8.798;2023-03-31T16:14:30;14.20;99.90
31765;DHT22;18338;53.240;8.798;2023-03-31T16:17:02;13.90;99.90
31765;DHT22;18338;53.240;8.798;2023-03-31T16:19:42;13.90;99.90
31765;DHT22;18338;53.240;8.798;2023-03-31T16:22:15;13.80;99.90
31765;DHT22;18338;53.240;8.798;2023-03-31T16:24:42;13.70;99.90
31765;DHT22;18338;53.240;8.798;2023-03-31T16:27:09;13.70;99.90
31765;DHT22;18338;53.240;8.798;2023-03-31T16:29:37;13.60;99.90
31765;DHT22;18338;53.240;8.798;2023-03-31T16:32:19;13.40;99.90
31765;DHT22;18338;53.240;8.798;2023-03-31T16:35:09;13.30;99.90
31765;DHT22;18338;53.240;8.798;2023-03-31T16:37:36;13.30;99.90
31765;DHT22;18338;53.240;8.798;2023-03-31T16:40:04;13.20;99.90
31765;DHT22;18338;53.240;8.798;2023-03-31T16:42:31;13.10;99.90
31765;DHT22;18338;53.240;8.798;2023-03-31T16:44:58;13.00;99.90
31765;DHT22;18338;53.240;8.798;2023-03-31T16:47:40;13.00;99.90
31765;DHT22;18338;53.240;8.798;2023-03-31T16:50:11;13.00;99.90
31765;DHT22;18338;53.240;8.798;2023-03-31T16:52:40;13.00;99.90
31765;DHT22;18338;53.240;8.798;2023-03-31T16:55:08;12.90;99.90
31765;DHT22;18338;53.240;8.798;2023-03-31T16:57:35;12.90;99.90
31765;DHT22;18338;53.240;8.798;2023-03-31T17:00:02;12.90;99.90
31765;DHT22;18338;53.240;8.798;2023-03-31T17:02:30;12.90;99.90
31765;DHT22;18338;53.240;8.798;2023-03-31T17:04:56;12.80;99.90
31765;DHT22;18338;53.240;8.798;2023-03-31T17:07:37;12.70;99.90
31765;DHT22;18338;53.240;8.798;2023-03-31T17:10:04;12.60;99.90
31765;DHT22;18338;53.240;8.798;2023-03-31T17:12:32;12.60;99.90
31765;DHT22;18338;53.240;8.798;2023-03-31T17:14:59;12.50;99.90
31765;DHT22;18338;53.240;8.798;2023-03-31T17:17:28;12.40;99.90
31765;DHT22;18338;53.240;8.798;2023-03-31T17:19:55;12.30;99.90
31765;DHT22;18338;53.240;8.798;2023-03-31T17:22:22;12.20;99.90
31765;DHT22;18338;53.240;8.798;2023-03-31T17:24:49;12.20;99.90
31765;DHT22;18338;53.240;8.798;2023-03-31T17:27:22;12.10;99.90
31765;DHT22;18338;53.240;8.798;2023-03-31T17:29:49;12.10;99.90
31765;DHT22;18338;53.240;8.798;2023-03-31T17:32:16;12.00;99.90
31765;DHT22;18338;53.240;8.798;2023-03-31T17:34:43;12.00;99.90
31765;DHT22;18338;53.240;8.798;2023-03-31T17:37:10;12.00;99.90
31765;DHT22;18338;53.240;8.798;2023-03-31T17:39:37;11.90;99.90
31765;DHT22;18338;53.240;8.798;2023-03-31T17:42:04;11.90;99.90
31765;DHT22;18338;53.240;8.798;2023-03-31T17:44:31;11.80;99.90
31765;DHT22;18338;53.240;8.798;2023-03-31T17:46:58;11.70;99.90
31765;DHT22;18338;53.240;8.798;2023-03-31T17:49:25;11.60;99.90
31765;DHT22;18338;53.240;8.798;2023-03-31T17:51:52;11.60;99.90
31765;DHT22;18338;53.240;8.798;2023-03-31T17:54:19;11.60;99.90
31765;DHT22;18338;53.240;8.798;2023-03-31T17:56:47;11.50;99.90
31765;DHT22;18338;53.240;8.798;2023-03-31T17:59:17;11.50;99.90
31765;DHT22;18338;53.240;8.798;2023-03-31T18:01:44;11.40;99.90
31765;DHT22;18338;53.240;8.798;2023-03-31T18:04:13;11.30;99.90
31765;DHT22;18338;53.240;8.798;2023-03-31T18:06:43;11.30;99.90
31765;DHT22;18338;53.240;8.798;2023-03-31T18:09:18;11.30;99.90
31765;DHT22;18338;53.240;8.798;2023-03-31T18:11:45;11.30;99.90
31765;DHT22;18338;53.240;8.798;2023-03-31T18:14:12;11.30;99.90
31765;DHT22;18338;53.240;8.798;2023-03-31T18:16:39;11.20;99.90
31765;DHT22;18338;53.240;8.798;2023-03-31T18:19:11;11.20;99.90
31765;DHT22;18338;53.240;8.798;2023-03-31T18:21:46;11.20;99.90